Time;durP1;ratioP1;P1;durP2;ratioP2;P2;SDS_P1;SDS_P2;PMS_P1;PMS_P2;Temp;Humidity;BMP_temperature;BMP_pressure;BME280_temperature;BME280_humidity;BME280_pressure;Samples;Min_cycle;Max_cycle;Signal;HPM_P1;HPM_P2
2021/10/17 00:02:09;;;;;;;0.82;0.60;;;3.10;99.90;;;;;;5031820;28;20093;-66
2021/10/17 00:04:34;;;;;;;2.00;0.70;;;3.10;99.90;;;;;;5031653;28;20090;-66
2021/10/17 00:07:00;;;;;;;0.57;0.57;;;3.10;99.90;;;;;;5030453;28;20048;-66
2021/10/17 00:09:26;;;;;;;0.60;0.60;;;3.10;99.90;;;;;;5020679;28;20022;-66
2021/10/17 00:11:52;;;;;;;0.75;0.68;;;3.10;99.90;;;;;;5028489;28;20048;-66
2021/10/17 00:14:17;;;;;;;0.50;0.50;;;3.10;99.90;;;;;;5017868;28;20036;-66
2021/10/17 00:16:43;;;;;;;1.25;0.93;;;3.10;99.90;;;;;;5031858;28;20021;-66
2021/10/17 00:19:09;;;;;;;0.95;0.63;;;3.10;99.90;;;;;;5031676;28;20477;-66
2021/10/17 00:21:35;;;;;;;2.35;0.80;;;3.10;99.90;;;;;;5031683;28;20022;-66
2021/10/17 00:24:00;;;;;;;0.63;0.50;;;3.10;99.90;;;;;;5031363;28;20390;-66
2021/10/17 00:26:26;;;;;;;2.83;0.68;;;3.00;99.90;;;;;;5031482;28;20461;-66
2021/10/17 00:28:52;;;;;;;0.60;0.60;;;3.10;99.90;;;;;;5017580;28;20512;-66
2021/10/17 00:31:17;;;;;;;0.70;0.70;;;3.10;99.90;;;;;;5031439;28;20021;-66
2021/10/17 00:33:43;;;;;;;0.60;0.60;;;3.10;99.90;;;;;;5019515;28;20034;-66
2021/10/17 00:36:11;;;;;;;0.40;0.40;;;3.10;99.90;;;;;;5023994;28;20040;-66
2021/10/17 00:38:37;;;;;;;0.85;0.60;;;3.10;99.90;;;;;;5035511;28;20021;-66
2021/10/17 00:41:02;;;;;;;2.28;0.68;;;3.10;99.90;;;;;;5027182;28;20026;-66
2021/10/17 00:43:28;;;;;;;2.58;0.80;;;3.10;99.90;;;;;;5027103;28;20637;-66
2021/10/17 00:45:54;;;;;;;1.08;0.60;;;3.10;99.90;;;;;;5034263;28;20037;-66
2021/10/17 00:48:20;;;;;;;0.60;0.60;;;3.10;99.90;;;;;;5035199;28;20029;-66
2021/10/17 00:50:46;;;;;;;0.60;0.60;;;3.10;99.90;;;;;;5027057;28;20040;-66
2021/10/17 00:53:12;;;;;;;1.35;0.70;;;3.10;99.90;;;;;;5021272;28;20048;-66
2021/10/17 00:55:38;;;;;;;0.70;0.70;;;3.10;99.90;;;;;;5035077;28;20046;-66
2021/10/17 00:58:03;;;;;;;1.15;0.70;;;3.10;99.90;;;;;;5035142;28;20028;-66
2021/10/17 01:00:29;;;;;;;0.50;0.50;;;3.10;99.90;;;;;;5034907;28;20018;-66
2021/10/17 01:02:55;;;;;;;1.65;0.50;;;3.10;99.90;;;;;;5034830;28;20033;-66
2021/10/17 01:05:21;;;;;;;3.05;0.57;;;3.10;99.90;;;;;;5034962;28;20096;-66
2021/10/17 01:07:47;;;;;;;0.70;0.70;;;3.10;99.90;;;;;;5035060;28;20084;-66
2021/10/17 01:10:14;;;;;;;0.75;0.52;;;3.10;99.90;;;;;;5035213;28;20485;-66
2021/10/17 01:12:40;;;;;;;0.75;0.50;;;3.10;99.90;;;;;;5034794;28;20034;-66
2021/10/17 01:15:06;;;;;;;1.67;0.70;;;3.00;99.90;;;;;;5034789;28;20099;-66
2021/10/17 01:17:35;;;;;;;0.85;0.70;;;3.00;99.90;;;;;;5034774;28;20044;-66
2021/10/17 01:20:02;;;;;;;2.45;0.50;;;3.00;99.90;;;;;;5028371;28;20034;-66
2021/10/17 01:22:28;;;;;;;0.50;0.50;;;3.00;99.90;;;;;;5027579;28;20029;-66
2021/10/17 01:24:54;;;;;;;0.50;0.50;;;3.00;99.90;;;;;;5026724;28;20500;-66
2021/10/17 01:27:20;;;;;;;0.90;0.50;;;3.00;99.90;;;;;;5033721;28;20068;-66
2021/10/17 01:29:49;;;;;;;3.13;0.70;;;3.10;99.90;;;;;;5014893;28;20406;-66
2021/10/17 01:32:15;;;;;;;0.50;0.50;;;3.00;99.90;;;;;;5025606;28;20084;-66
2021/10/17 01:34:41;;;;;;;0.75;0.50;;;3.00;99.90;;;;;;5034514;28;20033;-66
2021/10/17 01:37:07;;;;;;;0.50;0.50;;;3.00;99.90;;;;;;5034229;28;20362;-66
2021/10/17 01:39:33;;;;;;;1.20;0.60;;;3.00;99.90;;;;;;5023617;28;20030;-66
2021/10/17 01:41:58;;;;;;;0.63;0.60;;;3.10;99.90;;;;;;5031288;28;20025;-66
2021/10/17 01:44:29;;;;;;;0.60;0.60;;;3.10;99.90;;;;;;5034216;28;20026;-66
2021/10/17 01:46:56;;;;;;;1.27;0.60;;;3.10;99.90;;;;;;5032382;28;20029;-66
2021/10/17 01:49:22;;;;;;;0.60;0.57;;;3.10;99.90;;;;;;5024019;28;20597;-66
2021/10/17 01:51:48;;;;;;;0.95;0.60;;;3.00;99.90;;;;;;5034105;28;20036;-66
2021/10/17 01:54:14;;;;;;;1.27;0.60;;;3.00;99.90;;;;;;5033732;28;20053;-66
2021/10/17 01:56:40;;;;;;;0.77;0.70;;;3.00;99.90;;;;;;5019973;28;20018;-66
2021/10/17 01:59:06;;;;;;;0.60;0.60;;;3.00;99.90;;;;;;5033896;28;20030;-66
2021/10/17 02:01:31;;;;;;;0.68;0.68;;;3.00;99.90;;;;;;5023893;28;20068;-66
2021/10/17 02:04:01;;;;;;;0.80;0.80;;;3.00;99.90;;;;;;5030285;28;20053;-66
2021/10/17 02:06:28;;;;;;;0.50;0.50;;;3.00;99.90;;;;;;5034191;28;20030;-65
2021/10/17 02:08:54;;;;;;;0.40;0.40;;;3.00;99.90;;;;;;5033903;28;20033;-67
2021/10/17 02:11:20;;;;;;;0.52;0.50;;;3.00;99.90;;;;;;5025258;28;20433;-67
2021/10/17 02:13:45;;;;;;;0.68;0.50;;;3.00;99.90;;;;;;5016198;28;20041;-67
2021/10/17 02:16:11;;;;;;;0.55;0.55;;;3.00;99.90;;;;;;5031910;28;20025;-67
2021/10/17 02:18:37;;;;;;;0.43;0.43;;;3.00;99.90;;;;;;5033441;28;20028;-67
2021/10/17 02:21:04;;;;;;;0.63;0.55;;;3.00;99.90;;;;;;5033971;28;20032;-66
2021/10/17 02:23:31;;;;;;;0.55;0.55;;;3.00;99.90;;;;;;5033900;28;20017;-67
2021/10/17 02:55:01;;;;;;;1.27;0.52;;;2.80;99.90;;;;;;5032812;28;20095;-66
2021/10/17 02:57:26;;;;;;;1.08;0.57;;;2.90;99.90;;;;;;5031981;28;20024;-66
2021/10/17 02:59:52;;;;;;;0.50;0.50;;;2.90;99.90;;;;;;5031644;28;20076;-66
2021/10/17 03:02:18;;;;;;;2.45;0.60;;;2.90;99.90;;;;;;5024069;28;20022;-66
2021/10/17 03:04:43;;;;;;;0.80;0.70;;;2.80;99.90;;;;;;5026061;28;20029;-66
2021/10/17 03:07:09;;;;;;;0.57;0.57;;;2.80;99.90;;;;;;5017448;28;20108;-66
2021/10/17 03:09:35;;;;;;;0.82;0.60;;;2.80;99.90;;;;;;5032657;28;20025;-66
2021/10/17 03:12:00;;;;;;;1.35;0.60;;;2.80;99.90;;;;;;5032640;28;20028;-66
2021/10/17 03:14:26;;;;;;;0.57;0.50;;;2.80;99.90;;;;;;5032570;28;20104;-66
2021/10/17 03:16:52;;;;;;;1.02;0.60;;;2.80;99.90;;;;;;5032618;28;20025;-66
2021/10/17 03:19:17;;;;;;;0.60;0.60;;;2.80;99.90;;;;;;5018496;28;20072;-66
2021/10/17 03:21:46;;;;;;;2.08;0.70;;;2.80;99.90;;;;;;5032613;28;20022;-66
2021/10/17 03:24:12;;;;;;;1.05;0.50;;;2.80;99.90;;;;;;5032745;28;20057;-66
2021/10/17 03:26:38;;;;;;;0.88;0.57;;;2.80;99.90;;;;;;5032480;28;20041;-66
2021/10/17 03:29:03;;;;;;;0.57;0.57;;;2.80;99.90;;;;;;5032601;28;20485;-66
2021/10/17 03:31:32;;;;;;;0.65;0.60;;;2.80;99.90;;;;;;5032364;28;20075;-66
2021/10/17 03:33:58;;;;;;;0.52;0.52;;;2.80;99.90;;;;;;5027780;28;20036;-66
2021/10/17 03:36:24;;;;;;;4.10;0.80;;;2.80;99.90;;;;;;5022877;28;20061;-66
2021/10/17 03:38:50;;;;;;;1.50;0.60;;;2.80;99.90;;;;;;5031947;28;20068;-66
2021/10/17 03:41:15;;;;;;;2.00;0.70;;;2.80;99.90;;;;;;5031985;28;20021;-67
2021/10/17 03:43:41;;;;;;;0.60;0.60;;;2.80;99.90;;;;;;5031890;28;20022;-67
2021/10/17 03:46:07;;;;;;;1.45;0.60;;;2.80;99.90;;;;;;5032366;28;20026;-66
2021/10/17 03:48:33;;;;;;;1.05;0.70;;;2.80;99.90;;;;;;5032181;28;20465;-67
2021/10/17 03:50:59;;;;;;;0.50;0.50;;;2.80;99.90;;;;;;5031897;28;20021;-66
2021/10/17 03:53:25;;;;;;;2.05;0.70;;;2.80;99.90;;;;;;5016843;28;20543;-66
2021/10/17 03:55:50;;;;;;;0.60;0.60;;;2.80;99.90;;;;;;5031446;28;20057;-67
2021/10/17 03:58:16;;;;;;;1.13;0.70;;;2.70;99.90;;;;;;5031803;28;20026;-66
2021/10/17 04:00:42;;;;;;;0.50;0.50;;;2.70;99.90;;;;;;5030371;28;20057;-66
2021/10/17 04:03:08;;;;;;;1.23;0.60;;;2.70;99.90;;;;;;5031505;28;20381;-66
2021/10/17 04:05:34;;;;;;;3.13;0.68;;;2.70;99.90;;;;;;5032048;28;20033;-66
2021/10/17 04:07:59;;;;;;;1.67;0.70;;;2.70;99.90;;;;;;5030819;28;20386;-66
2021/10/17 04:10:25;;;;;;;0.60;0.60;;;2.70;99.90;;;;;;5032104;28;20029;-66
2021/10/17 04:12:51;;;;;;;3.03;0.88;;;2.70;99.90;;;;;;5031462;28;20052;-66
2021/10/17 04:15:16;;;;;;;1.00;0.70;;;2.70;99.90;;;;;;5031595;28;20045;-66
2021/10/17 04:17:42;;;;;;;0.60;0.60;;;2.60;99.90;;;;;;5031292;28;20497;-66
2021/10/17 04:20:08;;;;;;;2.10;0.60;;;2.60;99.90;;;;;;5031807;28;20021;-66
2021/10/17 04:22:35;;;;;;;1.48;1.38;;;2.60;99.90;;;;;;5031242;28;20095;-66
2021/10/17 04:25:00;;;;;;;1.00;0.68;;;2.60;99.90;;;;;;5030192;28;20389;-66
2021/10/17 04:27:26;;;;;;;0.82;0.70;;;2.60;99.90;;;;;;5031281;28;20108;-66
2021/10/17 04:29:52;;;;;;;3.30;0.70;;;2.60;99.90;;;;;;5017562;28;20030;-67
2021/10/17 04:32:18;;;;;;;0.77;0.60;;;2.60;99.90;;;;;;5031235;28;20370;-69
2021/10/17 04:34:43;;;;;;;0.70;0.70;;;2.60;99.90;;;;;;5031315;28;20455;-68
2021/10/17 04:37:09;;;;;;;0.60;0.60;;;2.60;99.90;;;;;;5031553;28;20608;-68
2021/10/17 04:39:36;;;;;;;1.25;0.80;;;2.60;99.90;;;;;;5031444;28;20029;-68
2021/10/17 04:42:02;;;;;;;0.93;0.70;;;4.10;99.90;;;;;;5029911;28;20026;-68
2021/10/17 04:44:28;;;;;;;0.82;0.70;;;4.40;99.90;;;;;;5025574;28;20700;-75
2021/10/17 04:46:54;;;;;;;0.85;0.60;;;4.00;99.90;;;;;;5018822;28;20101;-77
2021/10/17 04:49:25;;;;;;;0.70;0.70;;;3.60;99.90;;;;;;5010946;28;20026;-75
2021/10/17 04:51:52;;;;;;;1.20;0.68;;;3.30;99.90;;;;;;5018275;28;20054;-75
2021/10/17 04:54:17;;;;;;;6.63;0.70;;;3.20;99.90;;;;;;5016472;28;20465;-76
2021/10/17 04:56:43;;;;;;;1.35;0.73;;;3.10;99.90;;;;;;5024847;28;20029;-74
2021/10/17 04:59:09;;;;;;;2.50;0.77;;;3.00;99.90;;;;;;5025718;28;20401;-78
2021/10/17 05:01:36;;;;;;;1.30;0.68;;;2.90;99.90;;;;;;5020308;28;20037;-69
2021/10/17 05:04:02;;;;;;;1.50;0.80;;;2.90;99.90;;;;;;5017227;28;20040;-68
2021/10/17 05:06:28;;;;;;;0.70;0.70;;;2.80;99.90;;;;;;5019837;28;20018;-68
2021/10/17 05:08:53;;;;;;;0.77;0.77;;;2.80;99.90;;;;;;5020280;28;20033;-68
2021/10/17 05:11:22;;;;;;;0.63;0.63;;;2.70;99.90;;;;;;5014346;28;20025;-68
2021/10/17 05:13:48;;;;;;;3.72;0.90;;;2.70;99.90;;;;;;5012391;28;20471;-68
2021/10/17 05:16:14;;;;;;;0.80;0.80;;;2.70;99.90;;;;;;5016012;28;20018;-68
2021/10/17 05:18:40;;;;;;;1.60;0.70;;;2.70;99.90;;;;;;5011506;28;20109;-68
2021/10/17 05:21:06;;;;;;;3.33;0.88;;;2.60;99.90;;;;;;5027574;28;20037;-68
2021/10/17 05:23:31;;;;;;;0.95;0.68;;;2.60;99.90;;;;;;5018730;28;20106;-73
2021/10/17 05:25:57;;;;;;;1.88;0.70;;;2.90;99.90;;;;;;5028708;28;20029;-66
2021/10/17 05:28:23;;;;;;;1.08;0.68;;;2.90;99.90;;;;;;5034827;28;20014;-68
2021/10/17 05:30:49;;;;;;;0.90;0.60;;;2.80;99.90;;;;;;5026774;28;20377;-68
2021/10/17 05:33:14;;;;;;;1.95;0.60;;;2.70;99.90;;;;;;5034458;28;20026;-68
2021/10/17 05:35:40;;;;;;;1.77;0.93;;;2.60;99.90;;;;;;5034327;28;20021;-68
2021/10/17 05:38:06;;;;;;;0.65;0.65;;;2.60;99.90;;;;;;5026370;28;20033;-68
2021/10/17 05:40:31;;;;;;;1.40;0.57;;;2.60;99.90;;;;;;5034725;28;20095;-68
2021/10/17 05:42:57;;;;;;;2.15;1.33;;;2.60;99.90;;;;;;5034095;28;20028;-68
2021/10/17 05:45:23;;;;;;;2.88;0.70;;;2.50;99.90;;;;;;5034259;28;20039;-68
2021/10/17 05:47:48;;;;;;;3.05;0.90;;;2.50;99.90;;;;;;5034434;28;20087;-68
2021/10/17 05:50:14;;;;;;;2.13;1.00;;;2.50;99.90;;;;;;5029082;28;20099;-68
2021/10/17 05:52:40;;;;;;;1.38;0.70;;;2.60;99.90;;;;;;5025788;28;20032;-67
2021/10/17 05:55:06;;;;;;;3.90;0.70;;;2.70;99.90;;;;;;5033895;28;20049;-67
2021/10/17 05:57:36;;;;;;;0.75;0.70;;;2.60;99.90;;;;;;5034070;28;20029;-67
2021/10/17 06:00:04;;;;;;;0.73;0.73;;;2.60;99.90;;;;;;5020445;28;20384;-65
2021/10/17 06:02:30;;;;;;;1.27;0.75;;;2.60;99.90;;;;;;5034202;28;20025;-68
2021/10/17 06:04:56;;;;;;;1.35;0.70;;;2.50;99.90;;;;;;5033810;28;20041;-68
2021/10/17 06:07:21;;;;;;;0.80;0.70;;;2.50;99.90;;;;;;5033805;28;20029;-69
2021/10/17 06:09:47;;;;;;;1.17;0.82;;;2.50;99.90;;;;;;5033925;28;20120;-68
2021/10/17 06:12:13;;;;;;;1.45;0.60;;;2.50;99.90;;;;;;5034041;28;20029;-68
2021/10/17 06:14:39;;;;;;;0.70;0.70;;;2.50;99.90;;;;;;5033446;28;20075;-68
2021/10/17 06:17:05;;;;;;;0.60;0.60;;;2.50;99.90;;;;;;5030952;28;20036;-68
2021/10/17 06:19:30;;;;;;;1.70;0.70;;;2.50;99.90;;;;;;5019144;28;20028;-68
2021/10/17 06:21:57;;;;;;;1.23;0.70;;;2.50;99.90;;;;;;5018621;28;20029;-68
2021/10/17 06:24:23;;;;;;;0.50;0.50;;;2.50;99.90;;;;;;5032648;28;20087;-68
2021/10/17 06:26:49;;;;;;;0.80;0.70;;;2.40;99.90;;;;;;5030525;28;20513;-67
2021/10/17 06:29:14;;;;;;;1.20;0.60;;;2.40;99.90;;;;;;5028681;28;20064;-65
2021/10/17 06:31:40;;;;;;;1.50;0.68;;;2.40;99.90;;;;;;5029947;28;20083;-66
2021/10/17 06:34:06;;;;;;;2.25;0.80;;;2.40;99.90;;;;;;5024984;28;20103;-67
2021/10/17 06:36:32;;;;;;;0.57;0.57;;;2.40;99.90;;;;;;5032941;28;20068;-65
2021/10/17 06:38:58;;;;;;;1.60;0.80;;;2.40;99.90;;;;;;5030196;28;20101;-65
2021/10/17 06:41:24;;;;;;;0.65;0.60;;;2.40;99.90;;;;;;5015601;28;20498;-66
2021/10/17 06:43:50;;;;;;;0.70;0.70;;;2.40;99.90;;;;;;5026667;28;20049;-66
2021/10/17 06:46:15;;;;;;;0.95;0.70;;;2.50;99.90;;;;;;5033151;28;20030;-66
2021/10/17 06:48:41;;;;;;;1.73;0.70;;;2.50;99.90;;;;;;5033311;28;20026;-67
2021/10/17 06:51:07;;;;;;;0.88;0.63;;;2.60;99.90;;;;;;5033030;28;20096;-68
2021/10/17 06:53:33;;;;;;;2.28;0.82;;;2.80;99.90;;;;;;5016993;28;20117;-66
2021/10/17 06:55:58;;;;;;;0.65;0.60;;;2.70;99.90;;;;;;5024300;28;20056;-66
2021/10/17 06:58:24;;;;;;;0.70;0.70;;;2.60;99.90;;;;;;5032899;28;20030;-66
2021/10/17 07:00:50;;;;;;;2.85;0.60;;;2.60;99.90;;;;;;5024563;28;20076;-66
2021/10/17 07:03:16;;;;;;;1.13;0.70;;;2.60;99.90;;;;;;5032690;28;20504;-66
2021/10/17 07:05:42;;;;;;;0.63;0.60;;;2.50;99.90;;;;;;5032415;28;20061;-67
2021/10/17 07:08:07;;;;;;;1.58;0.82;;;2.50;99.90;;;;;;5032869;28;20060;-67
2021/10/17 07:10:33;;;;;;;0.60;0.60;;;2.60;99.90;;;;;;5031592;28;20021;-68
2021/10/17 07:12:59;;;;;;;0.70;0.70;;;2.60;99.90;;;;;;5032565;28;20026;-68
2021/10/17 07:15:25;;;;;;;0.80;0.80;;;2.60;99.90;;;;;;5027612;28;20386;-68
2021/10/17 07:17:51;;;;;;;1.17;0.80;;;2.60;99.90;;;;;;5031471;28;20112;-68
2021/10/17 07:20:16;;;;;;;1.00;0.70;;;2.60;99.90;;;;;;5032073;28;20473;-67
2021/10/17 07:22:42;;;;;;;0.90;0.90;;;2.60;99.90;;;;;;5031108;28;20018;-66
2021/10/17 07:25:08;;;;;;;6.00;3.95;;;2.70;99.90;;;;;;5032262;28;20030;-66
2021/10/17 07:27:34;;;;;;;4.15;2.53;;;2.70;99.90;;;;;;5018869;28;20040;-67
2021/10/17 07:29:59;;;;;;;2.67;1.00;;;2.70;99.90;;;;;;5028643;28;20030;-67
2021/10/17 07:32:25;;;;;;;2.15;1.00;;;2.80;99.90;;;;;;5020991;28;20025;-67
2021/10/17 07:34:51;;;;;;;1.40;1.30;;;2.80;99.90;;;;;;5016652;28;20057;-67
2021/10/17 07:37:17;;;;;;;1.20;1.00;;;2.80;99.90;;;;;;5023077;28;20021;-67
2021/10/17 07:39:43;;;;;;;2.35;0.90;;;2.80;99.90;;;;;;5015392;28;20025;-67
2021/10/17 07:42:08;;;;;;;2.92;0.80;;;2.80;99.90;;;;;;5014452;28;20021;-67
2021/10/17 07:44:34;;;;;;;1.15;0.90;;;2.80;99.90;;;;;;5019793;28;20473;-67
2021/10/17 07:47:00;;;;;;;0.70;0.70;;;2.80;99.90;;;;;;5028701;28;20071;-66
2021/10/17 07:49:25;;;;;;;1.25;0.82;;;2.80;99.90;;;;;;5034512;28;20032;-68
2021/10/17 07:51:51;;;;;;;1.17;0.70;;;2.80;99.90;;;;;;5031587;28;20018;-68
2021/10/17 07:54:17;;;;;;;1.58;0.70;;;2.90;99.90;;;;;;5035667;28;20055;-69
2021/10/17 07:56:42;;;;;;;0.93;0.80;;;2.90;99.90;;;;;;5044750;28;20147;-68
2021/10/17 07:59:08;;;;;;;0.60;0.60;;;2.80;99.90;;;;;;5036898;28;20112;-68
2021/10/17 08:01:34;;;;;;;2.00;0.57;;;2.80;99.90;;;;;;5032727;28;20515;-67
2021/10/17 08:04:01;;;;;;;1.25;0.60;;;2.90;99.90;;;;;;5030814;28;20770;-65
2021/10/17 08:06:26;;;;;;;0.60;0.60;;;2.90;99.90;;;;;;5043898;28;20112;-65
2021/10/17 08:08:52;;;;;;;0.70;0.70;;;3.20;99.90;;;;;;5022590;28;20108;-65
2021/10/17 08:11:18;;;;;;;0.85;0.73;;;3.50;99.90;;;;;;5017353;28;20030;-70
2021/10/17 08:13:44;;;;;;;1.30;0.90;;;3.70;99.90;;;;;;5024927;28;20037;-69
2021/10/17 08:16:11;;;;;;;2.88;0.70;;;3.60;99.90;;;;;;5032466;28;20524;-69
2021/10/17 08:18:37;;;;;;;1.85;0.60;;;3.50;99.90;;;;;;5035798;28;20491;-69
2021/10/17 08:21:03;;;;;;;0.68;0.60;;;3.40;99.90;;;;;;5022456;28;20059;-69
2021/10/17 08:23:29;;;;;;;1.63;0.70;;;3.40;99.90;;;;;;5027470;28;20025;-69
2021/10/17 08:25:55;;;;;;;0.70;0.70;;;3.40;99.90;;;;;;5019884;28;20536;-69
2021/10/17 08:28:21;;;;;;;1.92;0.68;;;3.40;99.90;;;;;;5031224;28;20477;-69
2021/10/17 08:30:48;;;;;;;1.75;0.77;;;3.40;99.90;;;;;;5030024;28;20021;-69
2021/10/17 08:33:15;;;;;;;3.10;1.13;;;3.40;99.90;;;;;;5029119;28;20018;-69
2021/10/17 08:35:41;;;;;;;0.70;0.70;;;3.60;99.90;;;;;;5031674;28;20068;-70
2021/10/17 08:38:06;;;;;;;0.75;0.57;;;3.60;99.90;;;;;;5031101;28;20049;-69
2021/10/17 08:40:32;;;;;;;1.58;0.70;;;3.60;99.90;;;;;;5031484;28;20033;-69
2021/10/17 08:42:58;;;;;;;0.75;0.60;;;3.50;99.90;;;;;;5031483;28;20068;-69
2021/10/17 08:45:25;;;;;;;1.77;0.80;;;3.50;99.90;;;;;;5026288;28;20034;-69
2021/10/17 08:47:51;;;;;;;2.63;0.65;;;3.50;99.90;;;;;;5022986;28;20026;-68
2021/10/17 08:50:17;;;;;;;0.65;0.60;;;3.60;99.90;;;;;;5029978;28;20049;-68
2021/10/17 08:52:44;;;;;;;0.88;0.50;;;3.60;99.90;;;;;;5021231;28;20029;-69
2021/10/17 08:55:12;;;;;;;0.60;0.52;;;3.60;99.90;;;;;;5016321;28;20049;-70
2021/10/17 08:57:38;;;;;;;0.50;0.50;;;3.60;99.90;;;;;;5026718;28;20057;-70
2021/10/17 09:00:29;;;;;;;0.70;0.70;;;3.60;99.90;;;;;;5018925;28;20025;-70
2021/10/17 09:02:55;;;;;;;1.05;0.70;;;3.60;99.90;;;;;;5017984;28;20071;-71
2021/10/17 09:05:44;;;;;;;2.20;1.45;;;3.70;99.90;;;;;;5018661;28;20112;-71
2021/10/17 09:08:16;;;;;;;0.98;0.60;;;3.70;99.90;;;;;;5012898;28;20025;-71
2021/10/17 09:10:42;;;;;;;3.47;1.23;;;3.70;99.90;;;;;;5015627;28;20049;-70
2021/10/17 09:13:11;;;;;;;1.17;1.08;;;3.70;99.90;;;;;;5034321;28;20064;-70
2021/10/17 09:15:37;;;;;;;0.73;0.73;;;3.80;99.90;;;;;;5026727;28;20044;-70
2021/10/17 09:18:23;;;;;;;1.27;0.85;;;3.80;99.90;;;;;;5034857;28;20026;-72
2021/10/17 09:20:49;;;;;;;0.80;0.80;;;3.80;99.90;;;;;;5034688;28;20026;-71
2021/10/17 09:23:30;;;;;;;0.70;0.70;;;3.90;99.90;;;;;;5034627;28;20028;-71
2021/10/17 09:25:58;;;;;;;0.90;0.63;;;3.90;99.90;;;;;;5034715;28;20072;-71
2021/10/17 09:28:26;;;;;;;2.75;0.70;;;3.90;99.90;;;;;;5034638;28;20120;-71
2021/10/17 09:31:06;;;;;;;0.70;0.70;;;3.90;99.90;;;;;;5034604;28;20030;-71
2021/10/17 09:33:34;;;;;;;1.30;0.60;;;3.90;99.90;;;;;;5034672;28;20017;-72
2021/10/17 09:36:13;;;;;;;2.92;1.15;;;4.00;99.90;;;;;;5034438;28;20330;-71
2021/10/17 09:38:41;;;;;;;0.70;0.70;;;3.90;99.90;;;;;;5034642;28;20100;-70
2021/10/17 09:41:33;;;;;;;1.38;1.27;;;3.90;99.90;;;;;;5034332;28;20037;-71
2021/10/17 09:44:00;;;;;;;0.82;0.70;;;4.00;99.90;;;;;;5034269;28;20484;-71
2021/10/17 09:46:27;;;;;;;1.58;1.15;;;4.00;99.90;;;;;;5034333;28;20024;-69
2021/10/17 09:48:53;;;;;;;1.17;0.65;;;4.00;99.90;;;;;;5026141;28;20493;-69
2021/10/17 09:51:23;;;;;;;0.60;0.60;;;4.00;99.90;;;;;;5029180;28;20025;-69
2021/10/17 09:53:55;;;;;;;0.60;0.60;;;4.00;99.90;;;;;;5019981;28;20029;-69
2021/10/17 09:56:27;;;;;;;0.75;0.75;;;4.10;99.90;;;;;;5034018;28;20152;-69
2021/10/17 09:58:53;;;;;;;0.52;0.52;;;4.00;99.90;;;;;;5033868;28;20483;-69
2021/10/17 10:01:23;;;;;;;1.33;1.00;;;4.10;99.90;;;;;;5030371;28;20057;-69
2021/10/17 10:03:51;;;;;;;0.60;0.60;;;4.10;99.90;;;;;;5014294;28;20033;-70
2021/10/17 10:06:17;;;;;;;1.55;0.70;;;4.10;99.90;;;;;;5019006;28;20603;-70
2021/10/17 10:08:44;;;;;;;0.77;0.70;;;4.40;99.90;;;;;;5033865;28;20123;-69
2021/10/17 10:11:11;;;;;;;0.80;0.80;;;5.10;99.90;;;;;;5034008;28;20025;-69
2021/10/17 10:13:38;;;;;;;2.17;0.80;;;5.10;99.90;;;;;;5033533;28;20122;-70
2021/10/17 10:16:06;;;;;;;0.60;0.60;;;5.50;99.90;;;;;;5033703;28;20590;-69
2021/10/17 10:18:34;;;;;;;0.60;0.60;;;5.30;99.90;;;;;;5033656;28;20026;-65
2021/10/17 10:21:00;;;;;;;0.95;0.80;;;5.10;99.90;;;;;;5033205;28;20025;-65
2021/10/17 10:23:26;;;;;;;2.03;0.77;;;5.10;99.90;;;;;;5017582;28;20030;-65
2021/10/17 10:25:52;;;;;;;1.17;0.70;;;5.10;99.90;;;;;;5015094;28;20037;-65
2021/10/17 10:28:20;;;;;;;1.40;0.68;;;5.00;99.90;;;;;;5015212;28;20026;-65
2021/10/17 10:30:46;;;;;;;0.93;0.60;;;5.10;99.90;;;;;;5018078;28;20018;-65
2021/10/17 10:33:22;;;;;;;1.23;0.65;;;5.10;99.90;;;;;;5033414;28;20040;-65
2021/10/17 10:36:03;;;;;;;3.03;0.90;;;5.10;99.90;;;;;;5033340;28;20385;-65
2021/10/17 10:38:53;;;;;;;1.13;0.65;;;5.20;99.90;;;;;;5022353;28;20020;-68
2021/10/17 10:41:23;;;;;;;1.05;0.82;;;5.20;99.90;;;;;;5029356;28;20022;-68
2021/10/17 10:43:50;;;;;;;2.13;0.80;;;5.10;99.90;;;;;;5013688;28;20026;-67
2021/10/17 10:46:28;;;;;;;0.60;0.60;;;5.40;99.90;;;;;;5033329;28;20029;-67
2021/10/17 10:48:54;;;;;;;3.38;1.83;;;5.80;99.90;;;;;;5032713;28;20026;-67
2021/10/17 10:51:44;;;;;;;0.70;0.70;;;5.60;99.90;;;;;;5033262;28;20029;-67
2021/10/17 10:54:25;;;;;;;1.53;0.57;;;5.50;99.90;;;;;;5032643;28;20029;-65
2021/10/17 10:56:52;;;;;;;0.88;0.55;;;5.50;99.90;;;;;;5025197;28;20037;-67
2021/10/17 10:59:25;;;;;;;1.30;0.60;;;5.60;99.90;;;;;;5016166;28;20017;-67
2021/10/17 11:01:56;;;;;;;0.50;0.50;;;5.30;99.90;;;;;;5016610;28;20037;-67
2021/10/17 11:04:37;;;;;;;7.43;0.80;;;5.10;99.90;;;;;;5015047;28;20026;-67
2021/10/17 11:07:19;;;;;;;0.50;0.50;;;4.90;99.90;;;;;;5014795;28;20030;-67
2021/10/17 11:09:46;;;;;;;0.80;0.80;;;5.00;99.90;;;;;;5021477;28;20029;-67
2021/10/17 11:12:40;;;;;;;2.40;0.65;;;5.00;99.90;;;;;;5030900;28;20064;-67
2021/10/17 11:15:12;;;;;;;1.00;0.60;;;4.90;99.90;;;;;;5032260;28;20044;-68
2021/10/17 11:17:38;;;;;;;8.50;0.93;;;5.00;99.90;;;;;;5017128;28;20041;-67
2021/10/17 11:20:05;;;;;;;2.03;1.00;;;5.30;99.90;;;;;;5019993;28;20110;-69
2021/10/17 11:22:37;;;;;;;0.60;0.60;;;5.60;99.90;;;;;;5032605;28;20032;-71
2021/10/17 11:25:03;;;;;;;0.95;0.60;;;5.20;99.90;;;;;;5032129;28;20033;-69
2021/10/17 11:27:29;;;;;;;0.93;0.60;;;4.90;99.90;;;;;;5032331;28;20503;-69
2021/10/17 11:29:55;;;;;;;0.50;0.50;;;4.70;99.90;;;;;;5032033;28;20104;-70
2021/10/17 11:32:20;;;;;;;0.80;0.60;;;4.60;99.90;;;;;;5032734;28;20168;-69
2021/10/17 11:35:03;;;;;;;0.93;0.70;;;4.40;99.90;;;;;;5025346;28;20049;-69
2021/10/17 11:37:31;;;;;;;3.10;0.80;;;4.30;99.90;;;;;;5019702;28;20017;-69
2021/10/17 11:39:59;;;;;;;1.17;0.80;;;4.20;99.90;;;;;;5031744;28;20381;-69
2021/10/17 11:42:27;;;;;;;0.60;0.60;;;4.20;99.90;;;;;;5032088;28;20537;-69
2021/10/17 11:44:55;;;;;;;0.75;0.60;;;4.20;99.90;;;;;;5031860;28;20033;-69
2021/10/17 11:47:21;;;;;;;2.75;0.82;;;4.10;99.90;;;;;;5020702;28;20505;-70
2021/10/17 11:49:50;;;;;;;0.70;0.70;;;4.10;99.90;;;;;;5029512;28;20481;-70
2021/10/17 11:52:18;;;;;;;0.68;0.68;;;4.10;99.90;;;;;;5026850;28;20018;-70
2021/10/17 11:54:46;;;;;;;0.63;0.60;;;4.00;99.90;;;;;;5022360;28;20060;-70
2021/10/17 11:57:29;;;;;;;1.00;0.80;;;4.00;99.90;;;;;;5031707;28;20026;-70
2021/10/17 12:00:01;;;;;;;0.90;0.90;;;4.00;99.90;;;;;;5031770;28;20064;-69
2021/10/17 12:02:34;;;;;;;1.33;1.10;;;3.90;99.90;;;;;;5031693;28;20478;-70
2021/10/17 12:05:00;;;;;;;1.13;0.90;;;3.90;99.90;;;;;;5031657;28;20041;-69
2021/10/17 12:07:27;;;;;;;1.38;0.93;;;3.90;99.90;;;;;;5031881;28;20033;-69
2021/10/17 12:09:54;;;;;;;1.77;0.90;;;3.90;99.90;;;;;;5031447;28;20378;-70
2021/10/17 12:12:24;;;;;;;0.90;0.80;;;3.80;99.90;;;;;;5031974;28;20372;-69
2021/10/17 12:15:08;;;;;;;0.80;0.80;;;3.90;99.90;;;;;;5031763;28;20077;-68
2021/10/17 12:17:35;;;;;;;1.00;0.80;;;3.90;99.90;;;;;;5031687;28;20762;-70
2021/10/17 12:20:10;;;;;;;2.28;0.88;;;3.90;99.90;;;;;;5031262;28;20401;-69
2021/10/17 12:22:41;;;;;;;0.82;0.70;;;3.90;99.90;;;;;;5031679;28;20049;-70
2021/10/17 12:25:09;;;;;;;0.80;0.80;;;3.90;99.90;;;;;;5031357;28;20492;-69
2021/10/17 12:27:38;;;;;;;1.48;0.60;;;3.80;99.90;;;;;;5031566;28;20040;-69
2021/10/17 12:30:15;;;;;;;2.08;0.90;;;3.80;99.90;;;;;;5030743;28;20072;-69
2021/10/17 12:32:51;;;;;;;0.70;0.70;;;3.80;99.90;;;;;;5024025;28;20420;-69
2021/10/17 12:35:36;;;;;;;0.60;0.60;;;3.80;99.90;;;;;;5017172;28;20152;-69
2021/10/17 12:38:13;;;;;;;1.85;0.98;;;3.80;99.90;;;;;;5017862;28;20389;-69
2021/10/17 12:40:55;;;;;;;0.60;0.60;;;3.80;99.90;;;;;;5020470;28;20107;-69
2021/10/17 12:43:34;;;;;;;0.73;0.73;;;3.80;99.90;;;;;;5022195;28;20067;-69
2021/10/17 12:46:10;;;;;;;1.77;0.70;;;3.80;99.90;;;;;;5017117;28;20034;-70
2021/10/17 12:48:44;;;;;;;0.90;0.70;;;3.70;99.90;;;;;;5031245;28;20450;-69
2021/10/17 12:51:49;;;;;;;1.75;0.82;;;3.70;99.90;;;;;;5031336;28;20041;-70
2021/10/17 12:54:21;;;;;;;1.15;0.68;;;3.70;99.90;;;;;;5017979;28;20141;-69
2021/10/17 12:56:49;;;;;;;1.00;0.90;;;3.70;99.90;;;;;;5018013;28;20389;-69
2021/10/17 12:59:18;;;;;;;0.70;0.70;;;3.70;99.90;;;;;;5017679;28;20025;-69
2021/10/17 13:02:06;;;;;;;0.73;0.73;;;3.70;99.90;;;;;;5016381;28;20021;-69
2021/10/17 13:04:43;;;;;;;2.50;0.70;;;3.70;99.90;;;;;;5018824;28;20026;-68
2021/10/17 13:07:31;;;;;;;2.58;0.60;;;3.70;99.90;;;;;;5030604;28;20030;-68
2021/10/17 13:10:08;;;;;;;0.65;0.65;;;3.60;99.90;;;;;;5020940;28;20079;-68
2021/10/17 13:12:53;;;;;;;0.75;0.75;;;3.80;99.90;;;;;;5030835;28;20059;-69
2021/10/17 13:15:32;;;;;;;2.10;0.80;;;3.90;99.90;;;;;;5020964;28;20500;-67
2021/10/17 13:18:00;;;;;;;4.47;2.33;;;3.90;99.90;;;;;;5015402;28;20437;-67
2021/10/17 13:20:29;;;;;;;7.85;1.75;;;3.90;99.90;;;;;;5031364;28;20060;-67
2021/10/17 13:23:01;;;;;;;12.23;4.63;;;3.90;99.90;;;;;;5030971;28;20037;-67
2021/10/17 13:25:28;;;;;;;2.97;1.30;;;4.00;99.90;;;;;;5030925;28;20029;-67
2021/10/17 13:27:56;;;;;;;1.10;1.00;;;3.90;99.90;;;;;;5029012;28;20547;-67
2021/10/17 13:30:25;;;;;;;0.80;0.80;;;4.00;99.90;;;;;;5017489;28;20397;-67
2021/10/17 13:32:52;;;;;;;1.50;0.80;;;4.00;99.90;;;;;;5019019;28;20018;-67